Time;durP1;ratioP1;P1;durP2;ratioP2;P2;SDS_P1;SDS_P2;PMS_P1;PMS_P2;Temp;Humidity;BMP_temperature;BMP_pressure;BME280_temperature;BME280_humidity;BME280_pressure;Samples;Min_cycle;Max_cycle;Signal;HPM_P1;HPM_P2
2022/12/19 00:00:20;;;;;;;;;;;10.50;99.90;;;;;;6247330;23;19937;-64
2022/12/19 00:02:45;;;;;;;;;;;10.50;99.90;;;;;;6246922;23;19903;-70
2022/12/19 00:05:12;;;;;;;;;;;10.40;99.90;;;;;;6246977;23;20329;-70
2022/12/19 00:07:37;;;;;;;;;;;10.40;99.90;;;;;;6220149;23;20263;-69
2022/12/19 00:10:05;;;;;;;;;;;10.50;99.90;;;;;;6247279;23;19900;-68
2022/12/19 00:12:30;;;;;;;;;;;10.50;99.90;;;;;;6246965;23;19981;-70
2022/12/19 00:14:56;;;;;;;;;;;10.50;99.90;;;;;;6246933;23;20230;-70
2022/12/19 00:17:21;;;;;;;;;;;10.50;99.90;;;;;;6247549;23;19991;-69
2022/12/19 00:19:47;;;;;;;;;;;10.50;99.90;;;;;;6246735;23;19986;-68
2022/12/19 00:22:12;;;;;;;;;;;10.60;99.90;;;;;;6246955;23;19907;-67
2022/12/19 00:24:38;;;;;;;;;;;10.60;99.90;;;;;;6246952;22;20033;-69
2022/12/19 00:27:04;;;;;;;;;;;10.60;99.90;;;;;;6246767;23;19986;-67
2022/12/19 00:29:29;;;;;;;;;;;10.70;99.90;;;;;;6246790;23;19903;-64
2022/12/19 00:31:55;;;;;;;;;;;10.60;99.90;;;;;;6246516;23;19911;-69
2022/12/19 00:34:20;;;;;;;;;;;10.70;99.90;;;;;;6247059;23;19900;-69
2022/12/19 00:36:46;;;;;;;;;;;10.70;99.90;;;;;;6246602;23;19899;-68
2022/12/19 00:39:11;;;;;;;;;;;10.70;99.90;;;;;;6247047;23;19903;-67
2022/12/19 00:41:37;;;;;;;;;;;10.70;99.90;;;;;;6246697;23;19904;-66
2022/12/19 00:44:04;;;;;;;;;;;10.70;99.90;;;;;;6246544;23;19907;-68
2022/12/19 00:46:31;;;;;;;;;;;10.70;99.90;;;;;;6246671;23;20337;-68
2022/12/19 00:48:57;;;;;;;;;;;10.70;99.90;;;;;;6246794;23;19899;-69
2022/12/19 00:51:24;;;;;;;;;;;10.60;99.90;;;;;;6246607;23;20273;-66
2022/12/19 00:53:50;;;;;;;;;;;10.70;99.90;;;;;;6246772;23;19903;-69
2022/12/19 00:56:17;;;;;;;;;;;10.70;99.90;;;;;;6246963;23;20384;-68
2022/12/19 00:58:42;;;;;;;;;;;10.70;99.90;;;;;;6246649;23;19900;-67
2022/12/19 01:01:09;;;;;;;;;;;10.70;99.90;;;;;;6247334;23;19900;-69
2022/12/19 01:03:35;;;;;;;;;;;10.70;99.90;;;;;;6248533;23;19904;-68
2022/12/19 01:06:00;;;;;;;;;;;10.70;99.90;;;;;;6248716;23;19906;-67
2022/12/19 01:08:26;;;;;;;;;;;10.70;99.90;;;;;;6249050;23;19899;-66
2022/12/19 01:10:52;;;;;;;;;;;10.70;99.90;;;;;;6249907;23;19930;-67
2022/12/19 01:13:18;;;;;;;;;;;10.70;99.90;;;;;;6248603;23;20302;-65
2022/12/19 01:15:44;;;;;;;;;;;10.70;99.90;;;;;;6248593;23;20318;-68
2022/12/19 01:18:09;;;;;;;;;;;10.70;99.90;;;;;;6248573;23;19911;-69
2022/12/19 01:20:39;;;;;;;;;;;10.70;99.90;;;;;;6248515;23;19906;-67
2022/12/19 01:23:05;;;;;;;;;;;10.60;99.90;;;;;;6249205;23;19942;-69
2022/12/19 01:25:31;;;;;;;;;;;10.70;99.90;;;;;;6248421;22;19900;-69
2022/12/19 01:27:57;;;;;;;;;;;10.70;99.90;;;;;;6249173;23;19899;-69
2022/12/19 01:30:23;;;;;;;;;;;10.60;99.90;;;;;;6248095;23;19899;-67
2022/12/19 01:32:48;;;;;;;;;;;10.60;99.90;;;;;;6248935;23;19904;-70
2022/12/19 01:35:14;;;;;;;;;;;10.60;99.90;;;;;;6248677;23;20230;-65
2022/12/19 01:37:39;;;;;;;;;;;10.60;99.90;;;;;;6248376;23;19929;-68
2022/12/19 01:40:05;;;;;;;;;;;10.50;99.90;;;;;;6248315;23;19906;-67
2022/12/19 01:42:35;;;;;;;;;;;10.50;99.90;;;;;;6248321;23;19899;-68
2022/12/19 01:45:09;;;;;;;;;;;10.50;99.90;;;;;;6248277;23;19906;-69
2022/12/19 01:47:41;;;;;;;;;;;10.50;99.90;;;;;;6248602;23;19904;-66
2022/12/19 01:50:10;;;;;;;;;;;10.50;99.90;;;;;;6248646;23;19899;-68
2022/12/19 01:52:36;;;;;;;;;;;10.50;99.90;;;;;;6248589;23;19900;-69
2022/12/19 01:55:01;;;;;;;;;;;10.50;99.90;;;;;;6248273;23;19950;-67
2022/12/19 01:57:28;;;;;;;;;;;10.50;99.90;;;;;;6248469;23;20238;-68
2022/12/19 01:59:55;;;;;;;;;;;10.50;99.90;;;;;;6248253;23;20303;-67
2022/12/19 02:02:27;;;;;;;;;;;10.40;99.90;;;;;;6248149;23;19974;-67
2022/12/19 02:04:53;;;;;;;;;;;10.40;99.90;;;;;;6248468;23;19911;-70
2022/12/19 02:07:19;;;;;;;;;;;10.40;99.90;;;;;;6248100;23;20250;-69
2022/12/19 02:09:46;;;;;;;;;;;10.40;99.90;;;;;;6248070;23;19926;-67
2022/12/19 02:12:12;;;;;;;;;;;10.50;99.90;;;;;;6247836;23;19904;-70
2022/12/19 02:14:38;;;;;;;;;;;10.40;99.90;;;;;;6248004;23;19904;-67
2022/12/19 02:17:26;;;;;;;;;;;10.40;99.90;;;;;;6247923;23;19946;-65
2022/12/19 02:19:55;;;;;;;;;;;10.40;99.90;;;;;;6227961;23;19907;-68
2022/12/19 02:22:20;;;;;;;;;;;10.40;99.90;;;;;;6248158;23;19900;-68
2022/12/19 02:24:52;;;;;;;;;;;10.40;99.90;;;;;;6248219;22;19978;-66
2022/12/19 02:27:29;;;;;;;;;;;10.40;99.90;;;;;;6247989;23;19899;-69
2022/12/19 02:29:55;;;;;;;;;;;10.40;99.90;;;;;;6247849;23;19900;-67
2022/12/19 02:32:36;;;;;;;;;;;10.40;99.90;;;;;;6247343;23;19918;-66
2022/12/19 02:35:10;;;;;;;;;;;10.50;99.90;;;;;;6248461;23;20214;-70
2022/12/19 02:38:08;;;;;;;;;;;10.40;99.90;;;;;;6247752;23;19942;-66
2022/12/19 02:40:38;;;;;;;;;;;10.50;99.90;;;;;;6165030;23;19906;-67
2022/12/19 02:43:05;;;;;;;;;;;10.50;99.90;;;;;;6248473;23;20006;-67
2022/12/19 02:45:33;;;;;;;;;;;10.50;99.90;;;;;;6247741;23;19900;-67
2022/12/19 02:47:59;;;;;;;;;;;10.50;99.90;;;;;;6248154;23;19926;-67
2022/12/19 02:50:25;;;;;;;;;;;10.50;99.90;;;;;;6248081;23;19899;-67
2022/12/19 02:52:50;;;;;;;;;;;10.50;99.90;;;;;;6248026;23;19900;-68
2022/12/19 02:55:19;;;;;;;;;;;10.50;99.90;;;;;;6247748;23;19982;-68
2022/12/19 02:58:03;;;;;;;;;;;10.50;99.90;;;;;;6248049;23;19900;-66
2022/12/19 03:00:31;;;;;;;;;;;10.60;99.90;;;;;;6247740;23;20270;-69
2022/12/19 03:03:00;;;;;;;;;;;10.50;99.90;;;;;;6247930;23;19984;-70
2022/12/19 03:05:44;;;;;;;;;;;10.50;99.90;;;;;;6247549;23;19907;-68
2022/12/19 03:08:12;;;;;;;;;;;10.60;99.90;;;;;;6247819;23;19900;-67
2022/12/19 03:10:41;;;;;;;;;;;10.50;99.90;;;;;;6247469;23;20235;-68
2022/12/19 03:13:12;;;;;;;;;;;10.50;99.90;;;;;;6247439;23;19970;-68
2022/12/19 03:15:38;;;;;;;;;;;10.50;99.90;;;;;;6247501;23;20042;-66
2022/12/19 03:18:04;;;;;;;;;;;10.60;99.90;;;;;;6247759;23;19906;-67
2022/12/19 03:20:47;;;;;;;;;;;10.50;99.90;;;;;;6247306;23;19990;-66
2022/12/19 03:23:13;;;;;;;;;;;10.50;99.90;;;;;;6247743;23;19904;-69
2022/12/19 03:25:40;;;;;;;;;;;10.50;99.90;;;;;;6246905;22;20314;-70
2022/12/19 03:28:08;;;;;;;;;;;10.50;99.90;;;;;;6247960;23;19926;-66
2022/12/19 03:30:34;;;;;;;;;;;10.50;99.90;;;;;;6246977;23;19908;-66
2022/12/19 03:33:01;;;;;;;;;;;10.50;99.90;;;;;;6247977;23;19900;-69
2022/12/19 03:35:28;;;;;;;;;;;10.50;99.90;;;;;;6247501;23;19907;-69
2022/12/19 03:37:55;;;;;;;;;;;10.60;99.90;;;;;;6247489;23;20234;-66
2022/12/19 03:40:23;;;;;;;;;;;10.50;99.90;;;;;;6247153;23;19899;-67
2022/12/19 03:43:07;;;;;;;;;;;10.50;99.90;;;;;;6247061;23;19954;-70
2022/12/19 03:45:39;;;;;;;;;;;10.50;99.90;;;;;;6247485;23;19907;-67
2022/12/19 03:48:07;;;;;;;;;;;10.50;99.90;;;;;;6247121;23;20292;-67
2022/12/19 03:50:38;;;;;;;;;;;10.50;99.90;;;;;;6247477;23;19899;-69
2022/12/19 03:53:18;;;;;;;;;;;10.50;99.90;;;;;;6247347;23;20319;-67
2022/12/19 03:55:50;;;;;;;;;;;10.50;99.90;;;;;;6247063;23;19900;-66
2022/12/19 03:58:18;;;;;;;;;;;10.50;99.90;;;;;;6247792;23;19906;-68
2022/12/19 04:00:47;;;;;;;;;;;10.50;99.90;;;;;;6246919;23;19899;-68
2022/12/19 04:03:14;;;;;;;;;;;10.50;99.90;;;;;;6247286;23;19903;-65
2022/12/19 04:05:40;;;;;;;;;;;10.50;99.90;;;;;;6247265;23;20280;-66
2022/12/19 04:08:06;;;;;;;;;;;10.50;99.90;;;;;;6247238;23;19899;-67
2022/12/19 04:10:34;;;;;;;;;;;10.50;99.90;;;;;;6246829;23;20343;-68
2022/12/19 04:13:01;;;;;;;;;;;10.50;99.90;;;;;;6247081;23;19900;-66
2022/12/19 04:15:45;;;;;;;;;;;10.50;99.90;;;;;;6246702;23;19900;-68
2022/12/19 04:18:12;;;;;;;;;;;10.50;99.90;;;;;;6247414;23;19899;-68
2022/12/19 04:20:39;;;;;;;;;;;10.50;99.90;;;;;;6247070;23;19983;-66
2022/12/19 04:23:05;;;;;;;;;;;10.50;99.90;;;;;;6246460;23;19989;-63
2022/12/19 04:25:37;;;;;;;;;;;10.50;99.90;;;;;;6247262;22;19942;-68
2022/12/19 04:28:05;;;;;;;;;;;10.50;99.90;;;;;;6246687;23;19950;-67
2022/12/19 04:30:31;;;;;;;;;;;10.40;99.90;;;;;;6246697;23;19942;-70
2022/12/19 04:32:58;;;;;;;;;;;10.50;99.90;;;;;;6247354;23;19895;-69
2022/12/19 04:35:24;;;;;;;;;;;10.40;99.90;;;;;;6246555;23;19900;-67
2022/12/19 04:37:50;;;;;;;;;;;10.50;99.90;;;;;;6246631;23;19910;-66
2022/12/19 04:40:16;;;;;;;;;;;10.40;99.90;;;;;;6246608;23;20230;-66
2022/12/19 04:42:41;;;;;;;;;;;10.40;99.90;;;;;;6246474;23;19906;-65
2022/12/19 04:45:07;;;;;;;;;;;10.40;99.90;;;;;;6246540;23;19899;-67
2022/12/19 04:47:32;;;;;;;;;;;10.40;99.90;;;;;;6246536;23;19974;-65
2022/12/19 04:49:58;;;;;;;;;;;10.40;99.90;;;;;;6246503;23;19899;-69
2022/12/19 04:52:23;;;;;;;;;;;10.40;99.90;;;;;;6247173;23;19919;-67
2022/12/19 04:54:49;;;;;;;;;;;10.40;99.90;;;;;;6246508;23;19905;-69
2022/12/19 04:57:14;;;;;;;;;;;10.40;99.90;;;;;;6246821;23;19974;-66
2022/12/19 04:59:40;;;;;;;;;;;10.40;99.90;;;;;;6246468;23;19927;-66
2022/12/19 05:02:05;;;;;;;;;;;10.40;99.90;;;;;;6246801;23;19900;-71
2022/12/19 05:04:31;;;;;;;;;;;10.40;99.90;;;;;;6219456;23;19903;-67
2022/12/19 05:06:56;;;;;;;;;;;10.40;99.90;;;;;;6246790;23;19914;-66
2022/12/19 05:09:22;;;;;;;;;;;10.40;99.90;;;;;;6246388;23;19900;-68
2022/12/19 05:11:47;;;;;;;;;;;10.40;99.90;;;;;;6246819;23;19899;-67
2022/12/19 05:14:14;;;;;;;;;;;10.40;99.90;;;;;;6247415;23;19907;-68
2022/12/19 05:16:40;;;;;;;;;;;10.30;99.90;;;;;;6246263;23;20245;-70
2022/12/19 05:19:05;;;;;;;;;;;10.40;99.90;;;;;;6246294;23;19987;-70
2022/12/19 05:21:31;;;;;;;;;;;10.30;99.90;;;;;;6246367;23;19899;-65
2022/12/19 05:23:56;;;;;;;;;;;10.30;99.90;;;;;;6246552;22;19910;-67
2022/12/19 05:26:22;;;;;;;;;;;10.30;99.90;;;;;;6246335;23;19907;-68
2022/12/19 05:28:47;;;;;;;;;;;10.30;99.90;;;;;;6246387;23;19899;-65
2022/12/19 05:31:14;;;;;;;;;;;10.30;99.90;;;;;;6246242;23;20323;-66
2022/12/19 05:33:40;;;;;;;;;;;10.30;99.90;;;;;;6246312;23;19904;-67
2022/12/19 05:36:07;;;;;;;;;;;10.20;99.90;;;;;;6246941;23;19899;-68
2022/12/19 05:38:32;;;;;;;;;;;10.20;99.90;;;;;;6219484;23;19915;-68
2022/12/19 05:40:58;;;;;;;;;;;10.20;99.90;;;;;;6246287;23;19899;-68
2022/12/19 05:43:24;;;;;;;;;;;10.20;99.90;;;;;;6246143;23;19907;-69
2022/12/19 05:45:49;;;;;;;;;;;10.20;99.90;;;;;;6246580;23;19903;-66
2022/12/19 05:48:15;;;;;;;;;;;10.20;99.90;;;;;;6247181;23;19983;-66
2022/12/19 05:50:45;;;;;;;;;;;10.10;99.90;;;;;;6248420;23;19992;-65
2022/12/19 05:53:10;;;;;;;;;;;10.10;99.90;;;;;;6248036;23;20230;-66
2022/12/19 05:55:36;;;;;;;;;;;10.10;99.90;;;;;;6247996;23;19949;-66
2022/12/19 05:58:01;;;;;;;;;;;10.10;99.90;;;;;;6248047;23;19899;-69
2022/12/19 06:00:27;;;;;;;;;;;10.00;99.90;;;;;;6248306;23;19899;-67
2022/12/19 06:02:53;;;;;;;;;;;10.10;99.90;;;;;;6247922;23;19923;-64
2022/12/19 06:05:18;;;;;;;;;;;10.10;99.90;;;;;;6248294;23;20234;-69
2022/12/19 06:07:45;;;;;;;;;;;10.10;99.90;;;;;;6248656;23;19899;-68
2022/12/19 06:10:10;;;;;;;;;;;10.00;99.90;;;;;;6247822;23;19903;-69
2022/12/19 06:12:36;;;;;;;;;;;10.00;99.90;;;;;;6248258;23;19906;-69
2022/12/19 06:15:01;;;;;;;;;;;10.00;99.90;;;;;;6247918;23;19979;-67
2022/12/19 06:17:27;;;;;;;;;;;10.00;99.90;;;;;;6248195;23;19950;-67
2022/12/19 06:19:52;;;;;;;;;;;10.00;99.90;;;;;;6247834;23;19899;-67
2022/12/19 06:22:18;;;;;;;;;;;10.00;99.90;;;;;;6248171;23;19899;-68
2022/12/19 06:24:43;;;;;;;;;;;10.00;99.90;;;;;;6247598;22;19911;-68
2022/12/19 06:27:09;;;;;;;;;;;10.00;99.90;;;;;;6247776;23;19899;-66
2022/12/19 06:29:34;;;;;;;;;;;10.00;99.90;;;;;;6248083;23;20272;-70
2022/12/19 06:32:00;;;;;;;;;;;10.00;99.90;;;;;;6247320;23;19915;-70
2022/12/19 06:34:25;;;;;;;;;;;10.00;99.90;;;;;;6248070;23;19903;-67
2022/12/19 06:36:51;;;;;;;;;;;10.00;99.90;;;;;;6247648;23;19945;-65
2022/12/19 06:39:16;;;;;;;;;;;10.00;99.90;;;;;;6247657;23;19949;-68
2022/12/19 06:44:26;;;;;;;;;;;10.00;99.90;;;;;;6247895;23;19911;-68
2022/12/19 06:46:52;;;;;;;;;;;10.00;99.90;;;;;;6247565;23;19899;-69
2022/12/19 06:49:18;;;;;;;;;;;10.00;99.90;;;;;;6247875;23;19905;-70
2022/12/19 06:51:43;;;;;;;;;;;10.00;99.90;;;;;;6247855;23;19949;-64
2022/12/19 06:54:12;;;;;;;;;;;9.90;99.90;;;;;;6247504;23;19922;-67
2022/12/19 06:56:39;;;;;;;;;;;9.90;99.90;;;;;;6248199;23;19899;-65
2022/12/19 06:59:04;;;;;;;;;;;10.00;99.90;;;;;;6246849;23;20314;-68
2022/12/19 07:01:51;;;;;;;;;;;9.90;99.90;;;;;;6247418;23;19910;-68
2022/12/19 07:04:19;;;;;;;;;;;10.00;99.90;;;;;;6247747;23;19903;-68
2022/12/19 07:06:44;;;;;;;;;;;9.90;99.90;;;;;;6247398;23;19906;-67
2022/12/19 07:09:10;;;;;;;;;;;9.90;99.90;;;;;;6247391;23;20302;-67
2022/12/19 07:11:35;;;;;;;;;;;9.90;99.90;;;;;;6248060;23;19900;-68
2022/12/19 07:14:01;;;;;;;;;;;10.00;99.90;;;;;;6247276;23;19906;-67
2022/12/19 07:16:26;;;;;;;;;;;10.00;99.90;;;;;;6247650;23;20314;-66
2022/12/19 07:18:52;;;;;;;;;;;9.90;99.90;;;;;;6247616;23;19906;-67
2022/12/19 07:21:18;;;;;;;;;;;10.00;99.90;;;;;;6247284;23;20219;-70
2022/12/19 07:23:43;;;;;;;;;;;10.00;99.90;;;;;;6246959;22;19904;-68
2022/12/19 07:26:09;;;;;;;;;;;10.00;99.90;;;;;;6247157;23;20334;-65
2022/12/19 07:28:35;;;;;;;;;;;10.00;99.90;;;;;;6247143;23;19899;-67
2022/12/19 07:31:01;;;;;;;;;;;10.00;99.90;;;;;;6246952;23;19949;-66
2022/12/19 07:33:26;;;;;;;;;;;10.00;99.90;;;;;;6247160;23;19899;-68
2022/12/19 07:35:52;;;;;;;;;;;10.00;99.90;;;;;;6248477;23;20214;-66
2022/12/19 07:38:17;;;;;;;;;;;10.00;99.90;;;;;;6246957;23;19906;-66
2022/12/19 07:40:43;;;;;;;;;;;10.00;99.90;;;;;;6247332;23;19899;-69
2022/12/19 07:43:08;;;;;;;;;;;10.10;99.90;;;;;;6246863;23;19904;-66
2022/12/19 07:45:35;;;;;;;;;;;10.10;99.90;;;;;;6247334;23;19900;-69
2022/12/19 07:48:01;;;;;;;;;;;10.10;99.90;;;;;;6246879;23;19899;-66
2022/12/19 07:50:28;;;;;;;;;;;10.10;99.90;;;;;;6246945;23;19900;-68
2022/12/19 07:52:53;;;;;;;;;;;10.20;99.90;;;;;;6246924;23;19900;-68
2022/12/19 07:55:19;;;;;;;;;;;10.20;99.90;;;;;;6246943;23;19906;-65
2022/12/19 07:57:44;;;;;;;;;;;10.20;99.90;;;;;;6247227;23;19900;-67
2022/12/19 08:00:10;;;;;;;;;;;10.20;99.90;;;;;;6247162;23;20208;-64
2022/12/19 08:02:36;;;;;;;;;;;10.20;99.90;;;;;;6247515;23;19906;-67
2022/12/19 08:05:02;;;;;;;;;;;10.30;99.90;;;;;;6247083;23;19904;-66
2022/12/19 08:07:27;;;;;;;;;;;10.30;99.90;;;;;;6246620;23;19899;-66
2022/12/19 08:09:53;;;;;;;;;;;10.30;99.90;;;;;;6245805;23;19907;-68
2022/12/19 08:12:19;;;;;;;;;;;10.30;99.90;;;;;;6246728;23;19899;-74
2022/12/19 08:14:45;;;;;;;;;;;10.40;99.90;;;;;;6246977;23;19900;-75
2022/12/19 08:17:10;;;;;;;;;;;10.30;99.90;;;;;;6246593;23;19906;-73
2022/12/19 08:19:36;;;;;;;;;;;10.40;99.90;;;;;;6247004;23;19946;-73
2022/12/19 08:22:01;;;;;;;;;;;10.40;99.90;;;;;;6246577;23;19899;-71
2022/12/19 08:24:27;;;;;;;;;;;10.40;99.90;;;;;;6246434;22;19986;-69
2022/12/19 08:26:52;;;;;;;;;;;10.40;99.90;;;;;;6246796;23;20301;-74
2022/12/19 08:29:18;;;;;;;;;;;10.40;99.90;;;;;;6247481;23;19954;-68
2022/12/19 08:31:43;;;;;;;;;;;10.50;99.90;;;;;;6246385;23;19912;-74
2022/12/19 08:34:09;;;;;;;;;;;10.50;99.90;;;;;;6246488;23;19923;-71
2022/12/19 08:36:34;;;;;;;;;;;10.50;99.90;;;;;;6245664;23;20403;-71
2022/12/19 08:39:00;;;;;;;;;;;10.60;99.90;;;;;;6245844;23;19903;-72
2022/12/19 08:41:25;;;;;;;;;;;10.60;99.90;;;;;;6245487;23;19899;-69
2022/12/19 08:43:52;;;;;;;;;;;10.60;99.90;;;;;;6246813;23;19927;-68
2022/12/19 08:46:18;;;;;;;;;;;10.60;99.90;;;;;;6245696;23;19926;-74
2022/12/19 08:48:44;;;;;;;;;;;10.70;99.90;;;;;;6219389;23;19899;-68
2022/12/19 08:51:10;;;;;;;;;;;10.70;99.90;;;;;;6246023;23;19910;-69
2022/12/19 08:53:37;;;;;;;;;;;10.70;99.90;;;;;;6245953;23;19900;-77
2022/12/19 08:56:05;;;;;;;;;;;10.70;99.90;;;;;;6245804;23;19907;-76
2022/12/19 08:58:31;;;;;;;;;;;10.70;99.90;;;;;;6246902;23;19899;-74
2022/12/19 09:01:00;;;;;;;;;;;10.70;99.90;;;;;;6246923;23;19950;-71
2022/12/19 09:03:27;;;;;;;;;;;10.80;99.90;;;;;;6246452;23;19904;-74
2022/12/19 09:05:57;;;;;;;;;;;10.70;99.90;;;;;;6246421;23;19950;-72
2022/12/19 09:08:23;;;;;;;;;;;10.80;99.90;;;;;;6245376;23;19899;-69
2022/12/19 09:10:49;;;;;;;;;;;10.80;99.90;;;;;;6219113;23;20334;-75
2022/12/19 09:13:14;;;;;;;;;;;10.80;99.90;;;;;;6246105;23;19899;-73
2022/12/19 09:15:40;;;;;;;;;;;10.90;99.90;;;;;;6245568;23;19903;-69
2022/12/19 09:18:05;;;;;;;;;;;10.90;99.90;;;;;;6245754;23;19899;-72
2022/12/19 09:20:31;;;;;;;;;;;10.90;99.90;;;;;;6245840;23;19922;-73
2022/12/19 09:22:57;;;;;;;;;;;10.80;99.90;;;;;;6246751;23;19930;-69
2022/12/19 09:25:22;;;;;;;;;;;10.90;99.90;;;;;;6247891;22;19899;-71
2022/12/19 09:27:48;;;;;;;;;;;10.90;99.90;;;;;;6247719;23;19986;-71
2022/12/19 09:30:14;;;;;;;;;;;10.90;99.90;;;;;;6246956;23;19899;-75
2022/12/19 09:32:40;;;;;;;;;;;11.00;99.90;;;;;;6248258;23;19907;-76
2022/12/19 09:35:06;;;;;;;;;;;11.00;99.90;;;;;;6248443;23;19930;-75
2022/12/19 09:37:32;;;;;;;;;;;11.10;99.90;;;;;;6246812;23;19900;-74
2022/12/19 09:39:58;;;;;;;;;;;11.10;99.90;;;;;;6247342;23;19949;-78
2022/12/19 09:42:35;;;;;;;;;;;11.20;99.90;;;;;;6248367;23;20310;-75
2022/12/19 09:45:19;;;;;;;;;;;11.20;99.90;;;;;;6247491;23;20314;-77
2022/12/19 09:47:47;;;;;;;;;;;11.20;99.90;;;;;;6247211;23;19899;-75
2022/12/19 09:50:26;;;;;;;;;;;11.20;99.90;;;;;;6248418;23;20334;-75
2022/12/19 09:52:56;;;;;;;;;;;11.20;99.90;;;;;;6247809;23;20372;-76
2022/12/19 09:55:32;;;;;;;;;;;11.30;99.90;;;;;;6247482;23;20014;-73
2022/12/19 09:58:04;;;;;;;;;;;11.40;99.90;;;;;;6247915;23;19907;-79
2022/12/19 10:00:35;;;;;;;;;;;11.50;99.90;;;;;;6247822;23;19910;-70
2022/12/19 10:03:01;;;;;;;;;;;11.60;99.90;;;;;;6246770;23;19966;-72
2022/12/19 10:05:26;;;;;;;;;;;11.70;99.90;;;;;;6248656;23;20293;-73
2022/12/19 10:07:52;;;;;;;;;;;11.70;99.90;;;;;;6247920;23;20380;-71
2022/12/19 10:10:33;;;;;;;;;;;11.80;99.90;;;;;;6248322;23;19906;-70
2022/12/19 10:12:59;;;;;;;;;;;11.90;99.90;;;;;;6248508;23;19900;-71
2022/12/19 10:15:24;;;;;;;;;;;12.00;99.90;;;;;;6247356;23;19929;-73
2022/12/19 10:17:53;;;;;;;;;;;12.10;99.90;;;;;;6247397;23;19910;-75
2022/12/19 10:20:21;;;;;;;;;;;12.40;99.90;;;;;;6247498;23;19974;-77
2022/12/19 10:22:50;;;;;;;;;;;12.50;99.90;;;;;;6247777;23;20340;-75
2022/12/19 10:25:34;;;;;;;;;;;12.50;99.90;;;;;;6247847;22;19907;-72
2022/12/19 10:28:14;;;;;;;;;;;12.50;99.90;;;;;;6247768;23;20341;-72
2022/12/19 10:30:52;;;;;;;;;;;12.50;99.90;;;;;;6247752;23;20256;-73
2022/12/19 10:33:25;;;;;;;;;;;12.40;99.90;;;;;;6248355;23;19950;-74
2022/12/19 10:35:56;;;;;;;;;;;12.40;99.90;;;;;;6247699;23;20356;-74
2022/12/19 10:38:34;;;;;;;;;;;12.50;99.90;;;;;;6248185;23;19900;-71
2022/12/19 10:41:00;;;;;;;;;;;12.50;99.90;;;;;;6248451;23;19974;-73
2022/12/19 10:43:30;;;;;;;;;;;12.50;99.90;;;;;;6247406;23;19953;-72
2022/12/19 10:46:01;;;;;;;;;;;12.50;99.90;;;;;;6247597;23;20373;-71
2022/12/19 10:48:27;;;;;;;;;;;12.50;99.90;;;;;;6247784;23;19907;-71
2022/12/19 10:50:53;;;;;;;;;;;12.50;99.90;;;;;;6248024;23;19900;-72
2022/12/19 10:53:25;;;;;;;;;;;12.70;99.90;;;;;;6248228;23;20200;-72
2022/12/19 10:55:52;;;;;;;;;;;12.90;99.90;;;;;;6247388;23;19904;-72
2022/12/19 10:58:23;;;;;;;;;;;13.10;99.90;;;;;;6247596;23;20314;-72
2022/12/19 11:01:01;;;;;;;;;;;13.10;99.90;;;;;;6247329;23;19903;-72
2022/12/19 11:03:27;;;;;;;;;;;13.20;99.90;;;;;;6247092;23;19904;-73
2022/12/19 11:05:54;;;;;;;;;;;13.30;99.90;;;;;;6247873;23;19907;-70
2022/12/19 11:08:21;;;;;;;;;;;13.90;99.90;;;;;;6246977;23;19904;-72
2022/12/19 11:10:50;;;;;;;;;;;13.90;99.90;;;;;;6247592;23;20298;-73
2022/12/19 11:13:24;;;;;;;;;;;14.00;99.90;;;;;;6247673;23;20315;-73
2022/12/19 11:15:54;;;;;;;;;;;13.80;99.90;;;;;;6247902;23;19934;-71
2022/12/19 11:18:22;;;;;;;;;;;13.60;99.90;;;;;;6247286;23;19915;-71
2022/12/19 11:21:02;;;;;;;;;;;13.60;99.90;;;;;;6245336;23;19899;-72
2022/12/19 11:23:28;;;;;;;;;;;13.50;99.90;;;;;;6244867;23;19907;-72
2022/12/19 11:25:58;;;;;;;;;;;13.40;99.90;;;;;;6246158;22;19904;-71
2022/12/19 11:28:37;;;;;;;;;;;13.40;99.90;;;;;;6246180;23;19982;-72
2022/12/19 11:31:06;;;;;;;;;;;13.20;99.90;;;;;;6245813;22;19911;-72
2022/12/19 11:33:32;;;;;;;;;;;13.60;99.90;;;;;;6246341;23;20337;-72
2022/12/19 11:35:58;;;;;;;;;;;14.00;99.90;;;;;;6246972;23;19902;-72
2022/12/19 11:38:44;;;;;;;;;;;14.10;99.90;;;;;;6247056;23;19903;-72
2022/12/19 11:41:12;;;;;;;;;;;14.00;99.90;;;;;;6246009;23;19899;-72
2022/12/19 11:43:43;;;;;;;;;;;14.40;99.90;;;;;;6247283;23;19903;-72
2022/12/19 11:46:15;;;;;;;;;;;14.00;99.90;;;;;;6246631;23;20318;-72
2022/12/19 11:48:45;;;;;;;;;;;13.80;99.90;;;;;;6220031;23;19903;-72
2022/12/19 11:51:13;;;;;;;;;;;14.10;99.90;;;;;;6247196;23;19986;-72
2022/12/19 11:53:39;;;;;;;;;;;14.20;99.90;;;;;;6246892;23;19899;-72
2022/12/19 11:56:07;;;;;;;;;;;13.90;99.90;;;;;;6247008;23;19947;-72
2022/12/19 11:58:33;;;;;;;;;;;13.70;99.90;;;;;;6247225;23;19899;-72
2022/12/19 12:01:31;;;;;;;;;;;13.60;99.90;;;;;;6246897;23;20326;-72
2022/12/19 12:03:59;;;;;;;;;;;13.70;99.90;;;;;;6164214;23;19904;-73
2022/12/19 12:06:28;;;;;;;;;;;13.90;99.90;;;;;;6247179;23;19903;-72
2022/12/19 12:09:23;;;;;;;;;;;14.20;99.90;;;;;;6247102;23;19953;-72
2022/12/19 12:12:07;;;;;;;;;;;13.90;99.90;;;;;;6213972;23;19907;-72
2022/12/19 12:14:53;;;;;;;;;;;13.70;99.90;;;;;;6247434;23;19900;-71
2022/12/19 12:17:29;;;;;;;;;;;13.60;99.90;;;;;;6246868;23;20326;-71
2022/12/19 12:19:54;;;;;;;;;;;13.60;99.90;;;;;;6247461;23;19985;-71
2022/12/19 12:22:22;;;;;;;;;;;13.70;99.90;;;;;;6246697;23;19903;-71
2022/12/19 12:25:17;;;;;;;;;;;13.80;99.90;;;;;;6246535;22;19934;-71
2022/12/19 12:28:06;;;;;;;;;;;13.80;99.90;;;;;;6113659;23;19901;-71
2022/12/19 12:30:57;;;;;;;;;;;13.80;99.90;;;;;;6247010;23;20257;-72
2022/12/19 12:33:37;;;;;;;;;;;13.70;99.90;;;;;;6188639;23;19900;-71
2022/12/19 12:36:09;;;;;;;;;;;13.80;99.90;;;;;;6247351;23;19899;-72
2022/12/19 12:38:53;;;;;;;;;;;13.60;99.90;;;;;;6246564;23;19900;-71
2022/12/19 12:42:02;;;;;;;;;;;13.50;99.90;;;;;;6246786;23;20311;-72
2022/12/19 12:44:08;;;;;;;;;;;13.50;99.90;;;;;;6246177;23;20333;-72
2022/12/19 12:46:39;;;;;;;;;;;13.50;99.90;;;;;;6246551;23;20255;-72
2022/12/19 12:49:11;;;;;;;;;;;13.60;99.90;;;;;;6246680;23;19899;-71
2022/12/19 12:51:37;;;;;;;;;;;13.80;99.90;;;;;;6247158;23;19899;-72
2022/12/19 12:54:06;;;;;;;;;;;13.80;99.90;;;;;;6246401;23;19906;-71
2022/12/19 12:56:32;;;;;;;;;;;14.00;99.90;;;;;;6246877;23;19900;-71
2022/12/19 12:59:03;;;;;;;;;;;14.10;99.90;;;;;;6248696;23;19900;-71
2022/12/19 13:01:29;;;;;;;;;;;14.10;99.90;;;;;;6248908;23;19900;-72
2022/12/19 13:03:54;;;;;;;;;;;14.10;99.90;;;;;;6248564;23;20237;-71
2022/12/19 13:06:24;;;;;;;;;;;14.10;99.90;;;;;;6248585;23;19911;-72
2022/12/19 13:08:50;;;;;;;;;;;14.10;99.90;;;;;;6248503;23;19907;-71
2022/12/19 13:14:04;;;;;;;;;;;14.20;99.90;;;;;;6247784;23;19954;-72
2022/12/19 13:16:41;;;;;;;;;;;14.30;99.90;;;;;;6248582;23;19905;-74
2022/12/19 13:19:30;;;;;;;;;;;14.40;99.90;;;;;;6248352;23;19903;-73
2022/12/19 13:22:15;;;;;;;;;;;14.60;99.90;;;;;;6228586;23;19899;-74
2022/12/19 13:24:44;;;;;;;;;;;14.80;99.90;;;;;;6248461;22;19911;-73
2022/12/19 13:27:18;;;;;;;;;;;15.20;99.90;;;;;;6248009;23;20233;-73
2022/12/19 13:29:53;;;;;;;;;;;15.20;99.90;;;;;;6247855;23;19900;-73
2022/12/19 13:32:19;;;;;;;;;;;15.10;99.90;;;;;;6247531;23;19912;-73
2022/12/19 13:34:52;;;;;;;;;;;15.00;99.90;;;;;;6248183;23;20329;-73
2022/12/19 13:37:41;;;;;;;;;;;14.90;99.90;;;;;;6248194;23;20396;-73
2022/12/19 13:40:09;;;;;;;;;;;14.70;99.90;;;;;;6227350;23;19900;-72
2022/12/19 13:45:25;;;;;;;;;;;14.50;99.90;;;;;;6248078;23;20296;-73
2022/12/19 13:47:52;;;;;;;;;;;14.40;99.90;;;;;;6247780;23;19904;-73
2022/12/19 13:50:23;;;;;;;;;;;14.30;99.90;;;;;;6248279;23;20276;-73
2022/12/19 13:52:49;;;;;;;;;;;14.20;99.90;;;;;;6247765;23;20302;-75
2022/12/19 13:55:15;;;;;;;;;;;14.20;99.90;;;;;;6247987;23;19906;-73
2022/12/19 13:57:40;;;;;;;;;;;14.20;99.90;;;;;;6248294;23;20261;-74
2022/12/19 14:00:14;;;;;;;;;;;14.30;99.90;;;;;;6247687;23;19931;-75
2022/12/19 14:02:43;;;;;;;;;;;14.30;99.90;;;;;;6247564;23;19904;-74
2022/12/19 14:05:32;;;;;;;;;;;14.30;99.90;;;;;;6247350;23;20341;-71
2022/12/19 14:07:58;;;;;;;;;;;14.20;99.90;;;;;;6226815;23;19899;-75
2022/12/19 14:10:28;;;;;;;;;;;14.20;99.90;;;;;;6247249;23;19903;-80
2022/12/19 14:15:39;;;;;;;;;;;14.20;99.90;;;;;;6246960;23;19993;-76
2022/12/19 14:18:15;;;;;;;;;;;14.30;99.90;;;;;;6247333;23;19899;-77
2022/12/19 14:20:41;;;;;;;;;;;14.30;99.90;;;;;;6247894;23;19949;-74
2022/12/19 14:23:06;;;;;;;;;;;14.20;99.90;;;;;;6246889;23;19903;-75
2022/12/19 14:25:46;;;;;;;;;;;14.10;99.90;;;;;;6246720;22;19899;-83
2022/12/19 14:28:18;;;;;;;;;;;14.00;99.90;;;;;;6194533;23;19904;-82
2022/12/19 14:30:46;;;;;;;;;;;14.00;99.90;;;;;;6247307;23;19911;-81
2022/12/19 14:33:14;;;;;;;;;;;14.00;99.90;;;;;;6247143;23;20246;-72
2022/12/19 14:35:51;;;;;;;;;;;13.90;99.90;;;;;;6247656;23;19899;-76